Ragtown, Nevada
Current Conditions -  °F | °C
As of 6:56 PM on Tuesday 21 Oct 2014 (Local Time) from KNFL Reporting Station
Broken Clouds Broken Clouds  
Wind Chill: 53°   Ceiling: 25000
Heat Index: 53°   Visibility: 10mi
Dew Point: 23°   Wind: 0mph
Humidity: 31%   Direction: NA
Pressure: 30.04"   Gusts: NA
Location:  39.5809°N, 118.333°W
Report Text: KNFL 220156Z 00000KT 10SM FEW150 SCT200 BKN250 12/M05 A3004 RMK AO2 SLP142 T01171050
Loading
Personal Weather Stations






























Interactive Weather Map
Tropical Storm Tracking
New forecast layout! Learn more

10-Day Weather Forecast

Advertisements
Track Severe Weather on mobile